createdAt,value
2022-12-14T00:04:11.405Z,100.00
2022-12-14T00:09:13.077Z,100.00
2022-12-14T00:14:14.632Z,100.00
2022-12-14T00:19:16.216Z,100.00
2022-12-14T00:24:17.783Z,100.00
2022-12-14T00:29:19.386Z,100.00
2022-12-14T00:34:21.036Z,100.00
2022-12-14T00:39:22.671Z,100.00
2022-12-14T00:44:24.249Z,100.00
2022-12-14T00:49:25.944Z,100.00
2022-12-14T00:54:27.487Z,100.00
2022-12-14T00:59:29.123Z,100.00
2022-12-14T01:04:31.371Z,100.00
2022-12-14T01:09:33.000Z,100.00
2022-12-14T01:14:34.732Z,100.00
2022-12-14T01:19:36.298Z,100.00
2022-12-14T01:24:37.976Z,100.00
2022-12-14T01:29:39.570Z,100.00
2022-12-14T01:34:41.071Z,100.00
2022-12-14T01:39:42.602Z,100.00
2022-12-14T01:44:44.136Z,100.00
2022-12-14T01:50:04.928Z,100.00
2022-12-14T01:55:19.960Z,100.00
2022-12-14T02:00:21.957Z,100.00
2022-12-14T02:05:24.988Z,100.00
2022-12-14T02:10:29.842Z,100.00
2022-12-14T02:15:32.395Z,100.00
2022-12-14T02:21:06.053Z,100.00
2022-12-14T02:26:28.735Z,100.00
2022-12-14T02:31:55.228Z,100.00
2022-12-14T02:37:30.032Z,100.00
2022-12-14T02:42:48.210Z,100.00
2022-12-14T02:47:55.001Z,100.00
2022-12-14T02:53:15.023Z,100.00
2022-12-14T02:58:45.074Z,100.00
2022-12-14T03:03:46.776Z,100.00
2022-12-14T03:08:48.318Z,100.00
2022-12-14T03:14:03.241Z,100.00
2022-12-14T03:19:28.822Z,100.00
2022-12-14T03:24:38.951Z,100.00
2022-12-14T03:29:53.819Z,100.00
2022-12-14T03:35:01.745Z,100.00
2022-12-14T03:40:06.386Z,100.00
2022-12-14T03:45:21.584Z,100.00
2022-12-14T03:50:28.072Z,100.00
2022-12-14T03:56:07.150Z,100.00
2022-12-14T04:01:39.854Z,100.00
2022-12-14T04:06:55.295Z,100.00
2022-12-14T04:12:19.723Z,100.00
2022-12-14T04:17:27.099Z,100.00
2022-12-14T04:22:34.188Z,100.00
2022-12-14T04:27:48.099Z,100.00
2022-12-14T04:32:53.904Z,100.00
2022-12-14T04:38:03.612Z,100.00
2022-12-14T04:43:11.595Z,100.00
2022-12-14T04:48:23.261Z,100.00
2022-12-14T04:53:29.998Z,100.00
2022-12-14T04:58:32.764Z,100.00
2022-12-14T05:03:38.630Z,100.00
2022-12-14T05:08:59.010Z,100.00
2022-12-14T05:14:02.680Z,100.00
2022-12-14T05:19:08.896Z,100.00
2022-12-14T05:24:10.414Z,100.00
2022-12-14T05:29:12.515Z,100.00
2022-12-14T05:34:14.186Z,100.00
2022-12-14T05:39:16.424Z,100.00
2022-12-14T05:44:18.022Z,100.00
2022-12-14T05:49:19.660Z,100.00
2022-12-14T05:54:21.373Z,100.00
2022-12-14T05:59:22.943Z,100.00
2022-12-14T06:04:24.635Z,100.00
2022-12-14T06:09:26.238Z,100.00
2022-12-14T06:14:27.747Z,100.00
2022-12-14T06:19:29.388Z,100.00
2022-12-14T06:24:31.010Z,100.00
2022-12-14T06:29:32.482Z,99.54
2022-12-14T06:34:38.514Z,100.00
2022-12-14T06:39:40.846Z,99.78
2022-12-14T06:44:42.448Z,100.00
2022-12-14T06:49:43.952Z,100.00
2022-12-14T06:54:46.592Z,98.76
2022-12-14T06:59:48.143Z,99.98
2022-12-14T07:04:49.810Z,100.00
2022-12-14T07:09:51.489Z,100.00
2022-12-14T07:14:53.298Z,100.00
2022-12-14T07:19:55.031Z,100.00
2022-12-14T07:24:56.683Z,100.00
2022-12-14T07:29:58.237Z,100.00
2022-12-14T07:34:59.890Z,100.00
2022-12-14T07:40:01.490Z,100.00
2022-12-14T07:45:03.254Z,100.00
2022-12-14T07:50:05.128Z,100.00
2022-12-14T07:55:07.295Z,100.00
2022-12-14T08:00:09.676Z,100.00
2022-12-14T08:05:13.916Z,99.54
2022-12-14T08:10:15.514Z,100.00
2022-12-14T08:15:17.014Z,100.00
2022-12-14T08:20:18.891Z,100.00
2022-12-14T08:25:20.584Z,100.00
2022-12-14T08:30:22.061Z,98.46
2022-12-14T08:35:23.788Z,98.07
2022-12-14T08:40:25.890Z,97.61
2022-12-14T08:45:27.529Z,97.50
2022-12-14T08:50:29.443Z,98.73
2022-12-14T08:55:38.211Z,99.20
2022-12-14T09:00:40.411Z,98.15
2022-12-14T09:05:42.005Z,98.10
2022-12-14T09:10:49.611Z,99.78
2022-12-14T09:16:17.920Z,99.93
2022-12-14T09:21:19.810Z,100.00
2022-12-14T09:26:22.306Z,98.61
2022-12-14T09:31:26.787Z,100.00
2022-12-14T09:36:28.944Z,100.00
2022-12-14T09:41:36.176Z,100.00
2022-12-14T09:46:54.089Z,100.00
2022-12-14T09:51:59.295Z,100.00
2022-12-14T09:57:34.956Z,100.00
2022-12-14T10:03:06.654Z,100.00
2022-12-14T10:08:08.791Z,100.00
2022-12-14T10:13:16.544Z,100.00
2022-12-14T10:18:58.181Z,100.00
2022-12-14T10:24:00.854Z,100.00
2022-12-14T10:29:07.519Z,100.00
2022-12-14T10:34:19.611Z,100.00
2022-12-14T10:39:34.139Z,100.00
2022-12-14T10:44:53.483Z,100.00
2022-12-14T10:50:20.286Z,100.00
2022-12-14T10:55:32.191Z,100.00
2022-12-14T11:00:33.749Z,100.00
2022-12-14T11:05:59.839Z,100.00
2022-12-14T11:11:18.605Z,100.00
2022-12-14T11:16:26.687Z,100.00
2022-12-14T11:21:38.255Z,100.00
2022-12-14T11:26:42.769Z,100.00
2022-12-14T11:31:49.765Z,100.00
2022-12-14T11:36:51.469Z,100.00
2022-12-14T11:41:59.212Z,100.00
2022-12-14T11:47:00.777Z,100.00
2022-12-14T11:52:05.301Z,100.00
2022-12-14T11:57:12.556Z,100.00
2022-12-14T12:02:35.124Z,100.00
2022-12-14T12:07:40.265Z,100.00
2022-12-14T12:12:54.346Z,100.00
2022-12-14T12:18:03.234Z,100.00
2022-12-14T12:23:23.012Z,100.00
2022-12-14T12:28:29.818Z,100.00
2022-12-14T12:33:34.914Z,100.00
2022-12-14T12:38:42.584Z,100.00
2022-12-14T12:43:57.855Z,100.00
2022-12-14T12:49:10.846Z,100.00
2022-12-14T12:54:21.457Z,100.00
2022-12-14T12:59:33.631Z,100.00
2022-12-14T13:04:39.174Z,100.00
2022-12-14T13:09:46.102Z,100.00
2022-12-14T13:14:50.412Z,100.00
2022-12-14T13:19:54.875Z,100.00
2022-12-14T13:25:13.061Z,100.00
2022-12-14T13:30:17.721Z,100.00
2022-12-14T13:35:37.562Z,100.00
2022-12-14T13:41:02.053Z,100.00
2022-12-14T13:46:24.052Z,100.00
2022-12-14T13:51:34.121Z,100.00
2022-12-14T13:56:38.943Z,100.00
2022-12-14T14:01:40.536Z,100.00
2022-12-14T14:06:50.380Z,100.00
2022-12-14T14:12:01.143Z,100.00
2022-12-14T14:17:25.379Z,100.00
2022-12-14T14:22:30.410Z,100.00
2022-12-14T14:27:39.593Z,100.00
2022-12-14T14:32:42.660Z,100.00
2022-12-14T14:37:54.711Z,100.00
2022-12-14T14:43:03.822Z,100.00
2022-12-14T14:48:32.427Z,100.00
2022-12-14T14:53:37.733Z,100.00
2022-12-14T14:58:41.390Z,100.00
2022-12-14T15:04:01.147Z,100.00
2022-12-14T15:09:12.664Z,100.00
2022-12-14T15:14:37.256Z,100.00
2022-12-14T15:19:39.139Z,100.00
2022-12-14T15:24:43.205Z,100.00
2022-12-14T15:29:49.366Z,100.00
2022-12-14T15:34:59.842Z,100.00
2022-12-14T15:40:11.962Z,100.00
2022-12-14T15:45:16.355Z,100.00
2022-12-14T15:50:30.397Z,100.00
2022-12-14T15:55:41.542Z,100.00
2022-12-14T16:00:47.310Z,100.00
2022-12-14T16:05:49.301Z,100.00
2022-12-14T16:10:55.025Z,100.00
2022-12-14T16:15:58.203Z,100.00
2022-12-14T16:21:02.763Z,100.00
2022-12-14T16:26:25.651Z,100.00
2022-12-14T16:31:27.465Z,100.00
2022-12-14T16:36:32.107Z,100.00
2022-12-14T16:41:38.854Z,100.00
2022-12-14T16:46:42.921Z,100.00
2022-12-14T16:52:06.222Z,100.00
2022-12-14T16:57:17.036Z,100.00
2022-12-14T17:02:25.482Z,100.00
2022-12-14T17:07:30.752Z,100.00
2022-12-14T17:12:32.286Z,100.00
2022-12-14T17:17:36.152Z,100.00
2022-12-14T17:22:37.798Z,100.00
2022-12-14T17:27:40.418Z,100.00
2022-12-14T17:32:43.086Z,100.00
2022-12-14T17:37:44.661Z,100.00
2022-12-14T17:42:52.509Z,100.00
2022-12-14T17:47:55.126Z,100.00
2022-12-14T17:52:57.809Z,100.00
2022-12-14T17:57:59.629Z,100.00
2022-12-14T18:03:03.385Z,100.00
2022-12-14T18:08:05.309Z,100.00
2022-12-14T18:13:07.030Z,100.00
2022-12-14T18:18:08.785Z,100.00
2022-12-14T18:23:15.247Z,100.00
2022-12-14T18:28:17.124Z,100.00
2022-12-14T18:33:23.188Z,100.00
2022-12-14T18:38:25.445Z,100.00
2022-12-14T18:43:28.284Z,100.00
2022-12-14T19:08:00.460Z,100.00
2022-12-14T19:13:02.231Z,100.00
2022-12-14T19:18:03.793Z,100.00
2022-12-14T19:23:05.465Z,100.00
2022-12-14T19:33:29.262Z,100.00
2022-12-14T19:38:31.116Z,100.00
2022-12-14T19:43:33.603Z,100.00
2022-12-14T19:48:35.752Z,100.00
2022-12-14T19:53:38.585Z,100.00
2022-12-14T19:58:40.531Z,100.00
2022-12-14T20:03:42.661Z,100.00
2022-12-14T20:08:44.362Z,100.00
2022-12-14T20:13:57.230Z,100.00
2022-12-14T20:19:00.617Z,100.00
2022-12-14T20:24:02.319Z,100.00
2022-12-14T20:29:05.021Z,100.00
2022-12-14T20:34:06.690Z,100.00
2022-12-14T20:39:08.486Z,100.00
2022-12-14T20:44:10.809Z,100.00
2022-12-14T20:49:20.229Z,100.00
2022-12-14T20:54:21.747Z,100.00
2022-12-14T20:59:23.381Z,100.00
2022-12-14T21:04:25.121Z,100.00
2022-12-14T21:09:26.644Z,100.00
2022-12-14T21:14:34.440Z,100.00
2022-12-14T21:19:36.408Z,100.00
2022-12-14T21:25:01.651Z,100.00
2022-12-14T21:29:59.795Z,100.00
2022-12-14T21:35:01.269Z,100.00
2022-12-14T21:40:03.138Z,100.00
2022-12-14T21:45:04.975Z,100.00
2022-12-14T21:50:07.216Z,100.00
2022-12-14T21:55:08.888Z,100.00
2022-12-14T22:00:10.902Z,100.00
2022-12-14T22:05:15.272Z,100.00
2022-12-14T22:10:22.882Z,100.00
2022-12-14T22:15:26.286Z,100.00
2022-12-14T22:20:27.787Z,100.00
2022-12-14T22:25:29.472Z,100.00
2022-12-14T22:30:32.035Z,100.00
2022-12-14T22:35:33.978Z,100.00
2022-12-14T22:40:35.558Z,100.00
2022-12-14T22:45:37.117Z,100.00
2022-12-14T22:50:38.667Z,100.00
2022-12-14T22:55:41.190Z,100.00
2022-12-14T23:00:43.205Z,100.00
2022-12-14T23:05:45.408Z,100.00
2022-12-14T23:10:47.248Z,100.00
2022-12-14T23:15:51.661Z,100.00
2022-12-14T23:20:53.653Z,100.00
2022-12-14T23:25:55.335Z,100.00
2022-12-14T23:30:57.971Z,100.00
2022-12-14T23:36:01.361Z,100.00
2022-12-14T23:41:02.888Z,100.00
2022-12-14T23:46:05.714Z,100.00
2022-12-14T23:51:07.283Z,100.00
2022-12-14T23:56:08.788Z,100.00
